Ana Sayfa
METAR-TAF:

METAR-TAF

Havaalanları :

Ubon Ratchathani, Tayland

Enlem: 15-15N, Boylam: 104-52E, yükseklik: 123 m

Güncel hava durumu gözlemi

Rapor saat 21:00 UTC de 52 dakika önce yapıldı.
Rüzgar kuzey/kuzeydoğudan 5 kt
Sıcaklık 15°C
Nem 82%
Basınç 1015 hPa
Görüş mesafesi: 9000 m

METAR: VTUU 092100Z 02005KT 9000 NSC 15/12 Q1015 NOSIG

Saat: 04:52 (21:52 UTC)

Tahmin

Rapor saat 17:00 UTC de 4 saat ve 52 dakika önce yapıldı.
Ayın 09'si saat 18 UTC'den ayın 10'si saat 18 UTC'ye kadar geçerli Tahmin
Rüzgar kuzey/kuzeydoğudan 7 kt
Görüş mesafesi: 9000 m

TAF: VTUU 091700Z 0918/1018 02007KT 9000 NSC

4.000'den fazla havaalanı için hava durumu gözlemleri ve tahminleri (METAR ve TAF raporları).

Kullanılabilir istasyonlar harita üzerinde sarı ve kırmızı noktalarla gösterilir.

İstasyonun adını görmek için fareyi noktanın üzerinde gezdirin.

Sonrasında hava gözlem ve tahminlerini görmek için tıklayın.

Haritayı değiştirmek için: yaklaştırmak için siyah artı işaretli yeşil düğmeye ve uzaklaştırmak için de eksi işaretli düğmeye hızla tıklayın; bitişik haritalar için yeşil okları kullanın.


METAR-TAF: